Airfield :
LOGIN :

Register | Disclaimer

   EN    FR    IT 

 










Legend :    VFR   Marginal VFR   IFR   Intensive IFR   Very Intensive IFR
Visi :
Ceiling :
>= 8 km
>= 3000ft
5 to 8 km
1000 to 3000 ft
1500m to 5 km
500 to 1000 ft
800 to 1500m
200 to 500 ft
< 800m
< 200 ft
Symbols :   Thunderstorms  Fog  Heavy snow  Heavy precipitations  Wind > 20 kt
SIGMETs :     Misc.  Thunderstorms  Icing  Turbulence  Mountain Waves  Volcanic Ashes






- Airport Elevation : 1516 ft
- IATA code : AGB


EDMA - Augsburg

CURRENT METAR :
  • 021520Z 25016KT 9999 RA BKN013 OVC021 04/03 Q1024

EXPIRED METARs :
  • 021450Z 26016G26KT 9999 RA BKN015 BKN020 OVC028 04/03 Q1024
  • 021420Z 26016KT 9999 RA FEW013 BKN015 OVC023 05/03 Q1024
  • 021350Z 26015KT 9999 -RA BKN013 OVC020 04/03 Q1024
  • 021320Z 26017KT 9999 -RA BKN013 OVC021 04/03 Q1024
  • 021250Z 26017KT 9999 -RA BKN015 OVC024 05/03 Q1023

TAF COR TAF EDMA
Valid from the 02 at 15:00 until the 03 at 00:00 UTC


021457Z 0215/0224 25015G25KT 9000 SCT010 BKN020
PROB40
TEMPO 0215/0216 RA
TEMPO 0215/0224 BKN010



MET'MAP, your aeronautical weather chart ! - Copyright ORBIFLY December 2007 - Disclaimer

ORBIFLY MET'MAP TEAM :

Programming & Development : Alexandra Zaïnal
Original concept : Baudouin d'Aumeries
Technical & hardware support : Manuel Goepfert
Assistance : Marc-Olivier Méhu




SOURCES & CREDITS :

   NOAA